Time;durP1;ratioP1;P1;durP2;ratioP2;P2;SDS_P1;SDS_P2;PMS_P1;PMS_P2;Temp;Humidity;BMP_temperature;BMP_pressure;BME280_temperature;BME280_humidity;BME280_pressure;Samples;Min_cycle;Max_cycle;Signal;HPM_P1;HPM_P2
2023/04/01 00:01:04;;;;;;;81.93;19.52;;;;;;;8.76;100.00;98943.16;4994039;28;20419;-50
2023/04/01 00:03:30;;;;;;;82.60;18.63;;;;;;;8.81;100.00;98956.91;4994160;28;20041;-53
2023/04/01 00:05:57;;;;;;;90.10;17.55;;;;;;;8.47;100.00;98906.28;4992784;28;20030;-50
2023/04/01 00:08:23;;;;;;;79.68;16.30;;;;;;;8.53;100.00;98926.06;4992515;28;20371;-49
2023/04/01 00:10:49;;;;;;;82.43;17.80;;;;;;;8.57;100.00;98932.84;4993533;28;20078;-49
2023/04/01 00:13:15;;;;;;;73.55;17.17;;;;;;;8.78;100.00;98978.91;4993375;28;20104;-51
2023/04/01 00:15:41;;;;;;;55.55;15.07;;;;;;;8.81;100.00;98973.50;4978616;28;20113;-47
2023/04/01 00:18:06;;;;;;;54.40;13.43;;;;;;;8.79;100.00;98977.09;5011632;28;20038;-50
2023/04/01 00:20:32;;;;;;;50.88;11.93;;;;;;;8.42;100.00;98924.03;5012366;28;20088;-49
2023/04/01 00:22:57;;;;;;;42.55;11.15;;;;;;;8.41;100.00;98935.44;5012464;28;20350;-48
2023/04/01 00:25:23;;;;;;;49.20;12.13;;;;;;;8.71;100.00;98980.16;5012743;28;20048;-49
2023/04/01 00:27:49;;;;;;;42.33;10.15;;;;;;;8.64;100.00;98957.81;5012232;28;20045;-50
2023/04/01 00:30:15;;;;;;;38.30;8.95;;;;;;;8.75;100.00;98976.44;5013112;28;20110;-52
2023/04/01 00:32:40;;;;;;;34.08;7.75;;;;;;;8.66;100.00;98969.06;5013105;28;20038;-49
2023/04/01 00:35:07;;;;;;;37.78;8.48;;;;;;;8.41;100.00;98929.34;5011011;28;20112;-48
2023/04/01 00:37:35;;;;;;;38.03;11.40;;;;;;;8.33;100.00;98915.81;5012906;28;20034;-51
2023/04/01 00:40:00;;;;;;;34.83;11.48;;;;;;;8.37;100.00;98939.19;5013336;28;20081;-53
2023/04/01 00:42:25;;;;;;;37.75;12.27;;;;;;;8.70;100.00;98985.50;4995477;28;20053;-48
2023/04/01 00:44:53;;;;;;;37.50;11.48;;;;;;;8.51;100.00;98963.81;5013102;28;20490;-51
2023/04/01 00:47:18;;;;;;;43.50;12.40;;;;;;;8.53;100.00;98975.03;5011715;28;20030;-52
2023/04/01 00:49:46;;;;;;;39.42;11.85;;;;;;;8.67;100.00;98998.78;5007606;28;20104;-50
2023/04/01 00:52:15;;;;;;;46.92;13.80;;;;;;;8.61;100.00;98991.25;4991973;28;20054;-50
2023/04/01 00:54:43;;;;;;;49.60;16.42;;;;;;;8.69;100.00;99000.38;4993363;28;20034;-52
2023/04/01 00:57:12;;;;;;;42.65;14.02;;;;;;;8.65;100.00;99016.34;4991948;28;20129;-50
2023/04/01 00:59:43;;;;;;;59.53;16.27;;;;;;;8.28;100.00;98951.91;4991960;28;20045;-53
2023/04/01 01:02:11;;;;;;;52.30;15.10;;;;;;;8.15;100.00;98928.09;4993457;28;20118;-51
2023/04/01 01:04:37;;;;;;;46.40;12.27;;;;;;;8.57;100.00;99006.28;4993033;28;20073;-53
2023/04/01 01:07:44;;;;;;;51.40;12.25;;;;;;;8.60;100.00;99005.28;5010339;28;20041;-47
2023/04/01 01:10:19;;;;;;;46.00;10.63;;;;;;;8.65;100.00;99008.47;5012647;28;20077;-49
2023/04/01 01:12:48;;;;;;;38.63;10.82;;;;;;;8.59;100.00;99016.69;5010963;28;20056;-51
2023/04/01 01:15:24;;;;;;;34.58;9.65;;;;;;;8.61;100.00;99014.84;5011389;28;20133;-49
2023/04/01 01:18:03;;;;;;;45.03;10.32;;;;;;;8.61;100.00;99017.47;5011151;28;20037;-52
2023/04/01 01:20:38;;;;;;;35.08;10.13;;;;;;;8.59;100.00;99032.41;5011336;28;20124;-48
2023/04/01 01:23:06;;;;;;;32.03;10.32;;;;;;;8.59;100.00;99029.78;5007176;28;20474;-50
2023/04/01 01:25:38;;;;;;;42.33;13.30;;;;;;;8.56;100.00;99033.44;5007793;28;20034;-50
2023/04/01 01:28:35;;;;;;;38.13;13.45;;;;;;;8.57;100.00;99037.75;4992580;28;20389;-50
2023/04/01 01:31:15;;;;;;;46.15;13.13;;;;;;;8.56;100.00;99024.72;4992815;28;20469;-50
2023/04/01 01:33:53;;;;;;;41.55;14.27;;;;;;;8.61;100.00;99036.66;5007809;28;20034;-48
2023/04/01 01:36:20;;;;;;;54.30;17.00;;;;;;;8.20;100.00;98975.03;4992622;28;20030;-51
2023/04/01 01:38:47;;;;;;;52.38;16.08;;;;;;;8.27;100.00;98984.25;5010043;28;20489;-49
2023/04/01 01:41:15;;;;;;;46.00;15.70;;;;;;;8.26;100.00;98979.97;5010074;28;20038;-50
2023/04/01 01:43:43;;;;;;;40.45;15.30;;;;;;;8.52;100.00;99031.91;5010997;28;20117;-50
2023/04/01 01:46:13;;;;;;;45.22;15.65;;;;;;;8.55;100.00;99039.63;5011063;28;20034;-49
2023/04/01 01:48:42;;;;;;;48.35;17.00;;;;;;;8.57;100.00;99042.16;5011208;28;20038;-49
2023/04/01 01:51:08;;;;;;;45.10;15.68;;;;;;;8.49;100.00;99030.28;5012148;28;20033;-49
2023/04/01 01:53:33;;;;;;;49.60;14.77;;;;;;;8.59;100.00;99048.16;5012044;28;20034;-52
2023/04/01 01:55:58;;;;;;;49.53;16.38;;;;;;;8.24;100.00;99003.63;5010831;28;20037;-50
2023/04/01 01:58:40;;;;;;;44.75;13.70;;;;;;;8.58;100.00;99060.41;4993877;28;20039;-50
2023/04/01 02:01:09;;;;;;;45.47;15.77;;;;;;;8.58;100.00;99054.34;4992211;28;20061;-49
2023/04/01 02:03:36;;;;;;;38.83;14.68;;;;;;;8.47;100.00;99042.63;4996363;28;20036;-49
2023/04/01 02:06:05;;;;;;;43.97;15.73;;;;;;;8.20;100.00;99001.25;4995164;28;20405;-47
2023/04/01 02:08:37;;;;;;;47.78;16.20;;;;;;;8.27;100.00;99016.59;4995033;28;20038;-47
2023/04/01 02:11:08;;;;;;;51.58;15.32;;;;;;;8.52;100.00;99071.25;4996089;28;20038;-48
2023/04/01 02:13:44;;;;;;;49.50;18.15;;;;;;;8.25;100.00;99028.91;4994105;28;20552;-50
2023/04/01 02:16:15;;;;;;;58.33;17.00;;;;;;;8.61;100.00;99083.03;5027670;28;20038;-49
2023/04/01 02:18:41;;;;;;;57.45;17.42;;;;;;;8.24;100.00;99021.09;4995093;28;20034;-50
2023/04/01 02:21:07;;;;;;;43.03;15.25;;;;;;;8.54;100.00;99073.78;4994986;28;20085;-51
2023/04/01 02:23:35;;;;;;;49.75;17.08;;;;;;;8.54;100.00;99063.28;4996111;28;20548;-49
2023/04/01 02:26:01;;;;;;;39.53;16.50;;;;;;;8.63;100.00;99095.13;4994813;28;20432;-52
2023/04/01 02:28:28;;;;;;;47.20;18.25;;;;;;;8.28;100.00;99031.41;4996186;28;20069;-48
2023/04/01 02:30:53;;;;;;;31.95;14.60;;;;;;;8.63;100.00;99096.91;4994345;28;20030;-48
2023/04/01 02:33:20;;;;;;;35.00;16.15;;;;;;;8.29;100.00;99042.75;4994472;28;20512;-48
2023/04/01 02:35:45;;;;;;;38.95;16.35;;;;;;;8.58;100.00;99096.31;4994601;28;20041;-49
2023/04/01 02:38:11;;;;;;;54.90;20.98;;;;;;;8.57;100.00;99094.59;4995782;28;20038;-48
2023/04/01 02:40:48;;;;;;;63.10;23.30;;;;;;;8.51;100.00;99084.41;4995631;28;20117;-52
2023/04/01 02:43:13;;;;;;;63.50;24.05;;;;;;;8.39;100.00;99073.63;4995598;28;20038;-48
2023/04/01 02:45:38;;;;;;;74.30;24.58;;;;;;;8.68;100.00;99113.25;4997417;28;20398;-49
2023/04/01 02:48:05;;;;;;;70.00;24.88;;;;;;;8.27;100.00;99055.91;5013759;28;20034;-50
2023/04/01 02:50:30;;;;;;;80.53;27.70;;;;;;;8.63;100.00;99118.75;5015045;28;20049;-52
2023/04/01 02:52:56;;;;;;;65.40;26.80;;;;;;;7.77;100.00;98973.75;5014813;28;20038;-49
2023/04/01 02:55:21;;;;;;;73.63;25.15;;;;;;;8.69;100.00;99128.91;5014855;28;20033;-49
2023/04/01 02:57:46;;;;;;;71.55;26.98;;;;;;;8.72;100.00;99123.50;5015060;28;20042;-48
2023/04/01 03:00:12;;;;;;;66.93;27.50;;;;;;;8.43;100.00;99080.41;5014878;28;20036;-50
2023/04/01 03:02:38;;;;;;;66.22;24.95;;;;;;;8.71;100.00;99134.06;5013916;28;20073;-52
2023/04/01 03:05:05;;;;;;;70.40;28.70;;;;;;;8.73;100.00;99146.16;5014856;28;20045;-48
2023/04/01 03:07:31;;;;;;;69.97;26.92;;;;;;;8.46;100.00;99101.22;5014621;28;20037;-48
2023/04/01 03:09:56;;;;;;;65.72;24.58;;;;;;;8.68;100.00;99134.22;5013777;28;20077;-53
2023/04/01 03:12:21;;;;;;;57.90;22.02;;;;;;;8.76;100.00;99151.25;5013699;28;20085;-49
2023/04/01 03:14:47;;;;;;;63.35;23.70;;;;;;;8.76;100.00;99150.41;5014663;28;20038;-51
2023/04/01 03:17:12;;;;;;;51.75;21.90;;;;;;;8.51;100.00;99121.13;5004917;28;20034;-50
2023/04/01 03:19:37;;;;;;;55.05;21.10;;;;;;;8.76;100.00;99163.53;4995163;28;20034;-52
2023/04/01 03:22:03;;;;;;;54.78;20.38;;;;;;;8.58;100.00;99133.00;4994892;28;20030;-51
2023/04/01 03:24:28;;;;;;;49.83;20.48;;;;;;;8.32;100.00;99108.09;4994988;28;20045;-52
2023/04/01 03:26:53;;;;;;;46.58;19.50;;;;;;;8.73;100.00;99179.41;4994813;28;20045;-53
2023/04/01 03:29:19;;;;;;;54.78;19.15;;;;;;;8.69;100.00;99173.50;4995017;28;20038;-53
2023/04/01 03:31:44;;;;;;;54.28;19.90;;;;;;;8.65;100.00;99178.97;4994378;28;20030;-51
2023/04/01 03:34:10;;;;;;;55.10;20.40;;;;;;;8.58;100.00;99164.50;5013887;28;20046;-52
2023/04/01 03:36:35;;;;;;;61.40;20.35;;;;;;;8.35;100.00;99137.63;5012905;28;20092;-51
2023/04/01 03:39:00;;;;;;;58.88;19.80;;;;;;;8.35;100.00;99139.41;5012984;28;20065;-49
2023/04/01 03:41:26;;;;;;;53.67;20.15;;;;;;;8.75;100.00;99216.94;5013058;28;20088;-49
2023/04/01 03:43:53;;;;;;;51.90;19.60;;;;;;;8.60;100.00;99188.84;5014191;28;20504;-50
2023/04/01 03:46:19;;;;;;;49.95;18.30;;;;;;;8.67;100.00;99201.56;4996572;28;20037;-51
2023/04/01 03:48:45;;;;;;;51.88;17.10;;;;;;;8.47;100.00;99165.84;5012799;28;20033;-49
2023/04/01 03:51:10;;;;;;;43.88;17.23;;;;;;;8.68;100.00;99216.38;5013013;28;20490;-50
2023/04/01 03:53:35;;;;;;;56.30;19.25;;;;;;;8.77;100.00;99233.44;5013675;28;20470;-50
2023/04/01 03:56:08;;;;;;;55.80;19.58;;;;;;;8.75;100.00;99240.56;5029028;28;20105;-49
2023/04/01 03:58:34;;;;;;;53.65;19.50;;;;;;;8.75;100.00;99244.03;5013966;28;20026;-50
2023/04/01 04:00:59;;;;;;;55.85;19.38;;;;;;;8.73;100.00;99240.59;5013767;28;20029;-49
2023/04/01 04:03:25;;;;;;;67.95;22.67;;;;;;;8.32;100.00;99178.88;5013620;28;20034;-49
2023/04/01 04:05:51;;;;;;;88.63;24.83;;;;;;;8.72;100.00;99257.28;4994004;28;20079;-49
2023/04/01 04:08:17;;;;;;;65.85;23.77;;;;;;;8.33;100.00;99191.06;4994061;28;20482;-50
2023/04/01 04:10:42;;;;;;;69.75;24.17;;;;;;;8.68;100.00;99258.34;4994002;28;20053;-49
2023/04/01 04:13:08;;;;;;;68.72;23.42;;;;;;;8.65;100.00;99261.13;4992428;28;20401;-48
2023/04/01 04:15:33;;;;;;;65.32;23.83;;;;;;;8.65;100.00;99269.00;4993733;28;20408;-49
2023/04/01 04:17:58;;;;;;;70.65;25.13;;;;;;;8.67;100.00;99269.75;4993885;28;20034;-51
2023/04/01 04:20:24;;;;;;;61.88;23.50;;;;;;;8.63;100.00;99278.72;4992601;28;20068;-49
2023/04/01 04:22:49;;;;;;;52.92;22.20;;;;;;;8.63;100.00;99280.50;4993417;28;20035;-48
2023/04/01 04:25:15;;;;;;;59.90;23.17;;;;;;;8.28;100.00;99219.28;4993610;28;20118;-50
2023/04/01 04:27:40;;;;;;;53.70;23.05;;;;;;;8.65;100.00;99287.38;4993935;28;20038;-47
2023/04/01 04:30:06;;;;;;;46.53;22.15;;;;;;;8.29;100.00;99236.72;4992717;28;20030;-49
2023/04/01 04:32:32;;;;;;;59.95;24.33;;;;;;;8.52;100.00;99278.41;4992286;28;20030;-47
2023/04/01 04:34:57;;;;;;;51.28;24.25;;;;;;;8.62;100.00;99291.91;4993488;28;20521;-49
2023/04/01 04:37:22;;;;;;;57.97;26.60;;;;;;;8.60;100.00;99299.88;4992951;28;20385;-48
2023/04/01 04:39:48;;;;;;;64.38;26.27;;;;;;;8.62;100.00;99302.41;4992190;28;20173;-47
2023/04/01 04:42:13;;;;;;;65.47;26.83;;;;;;;8.56;100.00;99314.03;5007911;28;20045;-48
2023/04/01 04:44:39;;;;;;;69.63;29.17;;;;;;;8.23;100.00;99248.28;5022492;28;20053;-48
2023/04/01 04:47:04;;;;;;;64.50;31.05;;;;;;;8.60;100.00;99325.22;5020265;28;20033;-50
2023/04/01 04:49:30;;;;;;;65.47;29.15;;;;;;;8.53;100.00;99302.84;5016127;28;20053;-51
2023/04/01 04:51:56;;;;;;;70.15;28.13;;;;;;;8.57;100.00;99318.38;4992904;28;20097;-50
2023/04/01 04:54:21;;;;;;;64.45;27.38;;;;;;;8.56;100.00;99327.16;4991666;28;20030;-47
2023/04/01 04:56:47;;;;;;;62.05;25.42;;;;;;;8.17;100.00;99269.56;4992022;28;20027;-49
2023/04/01 04:59:12;;;;;;;60.13;26.73;;;;;;;8.60;100.00;99351.47;5012272;28;20033;-50
2023/04/01 05:01:38;;;;;;;61.75;24.60;;;;;;;8.55;100.00;99335.97;5023015;28;20037;-52
2023/04/01 05:04:03;;;;;;;54.00;23.50;;;;;;;8.48;100.00;99334.53;5012552;28;20022;-51
2023/04/01 05:06:31;;;;;;;60.25;24.38;;;;;;;8.12;100.00;99289.03;5023941;28;20025;-49
2023/04/01 05:08:57;;;;;;;58.30;22.85;;;;;;;8.52;100.00;99361.47;4999217;28;20041;-49
2023/04/01 05:11:23;;;;;;;60.95;23.42;;;;;;;8.49;100.00;99357.22;5030787;28;20504;-51
2023/04/01 05:13:48;;;;;;;62.88;23.83;;;;;;;8.40;100.00;99355.03;5031961;28;20064;-52
2023/04/01 05:16:16;;;;;;;71.10;24.52;;;;;;;8.46;100.00;99371.31;5018021;28;20481;-48
2023/04/01 05:18:42;;;;;;;70.03;25.02;;;;;;;8.31;100.00;99348.44;5011167;28;20073;-51
2023/04/01 05:21:09;;;;;;;64.65;24.17;;;;;;;8.44;100.00;99386.28;5011355;28;20069;-48
2023/04/01 05:23:34;;;;;;;63.05;24.23;;;;;;;8.06;100.00;99311.13;5013008;28;20121;-50
2023/04/01 05:26:09;;;;;;;75.15;25.75;;;;;;;8.10;100.00;99330.19;5012303;28;20184;-52
2023/04/01 05:28:34;;;;;;;76.03;25.77;;;;;;;8.44;100.00;99391.50;5012521;28;20405;-50
2023/04/01 05:31:00;;;;;;;85.10;27.40;;;;;;;8.36;100.00;99371.81;5011172;28;20473;-47
2023/04/01 05:33:26;;;;;;;63.90;24.80;;;;;;;8.12;100.00;99339.69;5009450;28;20490;-48
2023/04/01 05:35:52;;;;;;;68.07;25.58;;;;;;;8.19;100.00;99350.75;5010856;28;20176;-51
2023/04/01 05:38:17;;;;;;;62.95;24.67;;;;;;;8.46;100.00;99396.69;5010634;28;20041;-47
2023/04/01 05:40:42;;;;;;;58.00;22.95;;;;;;;8.41;100.00;99396.91;5007260;28;20478;-48
2023/04/01 05:43:08;;;;;;;58.83;25.25;;;;;;;8.02;100.00;99330.56;5009086;28;20030;-49
2023/04/01 05:45:34;;;;;;;72.05;26.08;;;;;;;8.39;100.00;99396.13;5010640;28;20030;-48
2023/04/01 05:47:59;;;;;;;56.17;25.10;;;;;;;8.15;100.00;99367.53;5010979;28;20113;-46
2023/04/01 05:50:25;;;;;;;62.90;25.40;;;;;;;8.42;100.00;99427.44;5010936;28;20112;-49
2023/04/01 05:52:50;;;;;;;64.85;24.45;;;;;;;8.15;100.00;99375.38;5009130;28;20041;-52
2023/04/01 05:55:16;;;;;;;66.43;24.92;;;;;;;8.41;100.00;99436.22;5012019;28;20029;-48
2023/04/01 05:57:41;;;;;;;55.40;24.70;;;;;;;8.17;100.00;99399.78;5009894;28;20034;-49
2023/04/01 06:00:07;;;;;;;60.83;24.65;;;;;;;7.99;100.00;99377.88;4995743;28;20034;-49
2023/04/01 06:02:32;;;;;;;65.70;26.35;;;;;;;7.92;100.00;99360.72;5002261;28;20084;-49
2023/04/01 06:05:19;;;;;;;66.40;27.75;;;;;;;8.37;100.00;99449.56;5001766;28;20075;-49
2023/04/01 06:07:45;;;;;;;69.22;27.65;;;;;;;8.21;100.00;99420.53;4999130;28;20038;-48
2023/04/01 06:10:20;;;;;;;52.15;24.80;;;;;;;8.32;100.00;99444.50;5005652;28;20084;-50
2023/04/01 06:13:15;;;;;;;56.42;25.63;;;;;;;8.28;100.00;99457.84;4998425;28;20046;-52
2023/04/01 06:16:00;;;;;;;48.90;24.92;;;;;;;7.92;100.00;99403.47;5008681;28;20038;-48
2023/04/01 06:19:03;;;;;;;60.58;28.88;;;;;;;8.34;100.00;99474.16;5022748;28;20037;-51
2023/04/01 06:21:51;;;;;;;62.15;29.35;;;;;;;8.40;100.00;99473.88;4992825;28;20041;-49
2023/04/01 06:24:16;;;;;;;54.42;27.75;;;;;;;8.50;100.00;99471.66;5010795;28;20485;-50
2023/04/01 06:27:00;;;;;;;54.83;24.85;;;;;;;8.51;100.00;99489.13;5005360;28;20050;-50
2023/04/01 06:29:49;;;;;;;59.13;27.50;;;;;;;8.50;100.00;99487.41;4997406;28;20033;-50
2023/04/01 06:32:27;;;;;;;42.58;19.38;;;;;;;8.44;100.00;99501.66;5010817;28;20393;-51
2023/04/01 06:35:21;;;;;;;43.92;21.52;;;;;;;8.41;100.00;99488.66;5009869;28;20541;-52
2023/04/01 06:38:01;;;;;;;45.17;19.85;;;;;;;8.08;100.00;99442.13;5000241;28;20044;-49
2023/04/01 06:40:42;;;;;;;50.63;22.07;;;;;;;8.41;100.00;99499.16;5003023;28;20043;-50
2023/04/01 06:43:16;;;;;;;48.20;20.10;;;;;;;8.40;100.00;99513.22;5002654;28;20308;-49
2023/04/01 06:45:52;;;;;;;52.83;22.83;;;;;;;8.36;100.00;99502.91;5011663;28;20080;-49
2023/04/01 06:48:31;;;;;;;44.53;19.58;;;;;;;8.46;100.00;99505.03;5027628;28;20378;-48
2023/04/01 06:51:18;;;;;;;47.85;21.85;;;;;;;8.53;100.00;99518.75;5015400;28;20231;-49
2023/04/01 06:54:17;;;;;;;41.15;23.08;;;;;;;8.60;100.00;99520.19;5014374;28;20362;-51
2023/04/01 06:56:46;;;;;;;36.80;19.67;;;;;;;8.24;100.00;99469.34;5013758;28;20038;-49
2023/04/01 06:59:18;;;;;;;34.17;17.13;;;;;;;8.49;100.00;99532.94;5013880;28;20033;-48
2023/04/01 07:01:54;;;;;;;33.75;19.13;;;;;;;8.60;100.00;99528.03;4994908;28;20039;-48
2023/04/01 07:04:23;;;;;;;31.98;20.20;;;;;;;8.65;100.00;99533.06;5022021;28;20073;-48
2023/04/01 07:07:22;;;;;;;34.35;18.42;;;;;;;8.37;100.00;99475.78;5012403;28;20030;-48
2023/04/01 07:09:58;;;;;;;31.67;18.17;;;;;;;8.74;100.00;99530.88;4994685;28;20049;-48
2023/04/01 07:12:35;;;;;;;35.53;16.05;;;;;;;8.74;100.00;99544.00;4995003;28;20077;-47
2023/04/01 07:15:17;;;;;;;30.48;15.82;;;;;;;8.72;100.00;99545.84;4994738;28;20049;-49
2023/04/01 07:17:43;;;;;;;29.45;16.63;;;;;;;8.77;100.00;99550.88;5004073;28;20077;-48
2023/04/01 07:20:29;;;;;;;30.63;17.13;;;;;;;8.80;100.00;99556.84;5030031;28;20081;-47
2023/04/01 07:23:00;;;;;;;30.60;15.82;;;;;;;8.83;100.00;99558.47;5014633;28;20046;-50
2023/04/01 07:25:35;;;;;;;29.27;15.67;;;;;;;8.75;100.00;99563.22;5010424;28;20037;-48
2023/04/01 07:28:05;;;;;;;28.85;15.25;;;;;;;8.31;100.00;99482.16;5010157;28;20448;-51
2023/04/01 07:30:44;;;;;;;33.38;14.75;;;;;;;8.78;100.00;99571.81;5003790;28;20034;-49
2023/04/01 07:33:25;;;;;;;29.65;15.93;;;;;;;8.77;100.00;99575.34;5012573;28;20041;-48
2023/04/01 07:35:58;;;;;;;33.60;17.33;;;;;;;8.35;100.00;99511.69;5013176;28;20397;-48
2023/04/01 07:38:50;;;;;;;36.60;17.98;;;;;;;8.77;100.00;99580.59;4993279;28;20031;-52
2023/04/01 07:41:29;;;;;;;32.05;16.35;;;;;;;8.36;100.00;99518.63;5001012;28;20035;-48
2023/04/01 07:44:18;;;;;;;33.78;15.80;;;;;;;8.74;100.00;99586.00;5008376;28;20445;-48
2023/04/01 07:46:55;;;;;;;36.30;17.63;;;;;;;8.67;100.00;99573.22;5013388;28;20092;-51
2023/04/01 07:49:47;;;;;;;38.90;18.55;;;;;;;8.35;100.00;99536.13;5013070;28;20038;-49
2023/04/01 07:52:23;;;;;;;42.80;19.60;;;;;;;8.72;100.00;99593.09;5013741;28;20452;-48
2023/04/01 07:55:39;;;;;;;39.42;17.38;;;;;;;8.73;100.00;99600.00;5011597;28;20400;-50
2023/04/01 07:58:08;;;;;;;45.78;18.38;;;;;;;8.76;100.00;99612.13;4968381;28;20125;-49
2023/04/01 08:00:39;;;;;;;39.72;16.92;;;;;;;8.73;100.00;99592.16;5002871;28;20038;-50
2023/04/01 08:03:42;;;;;;;42.00;18.13;;;;;;;8.79;100.00;99609.38;5013538;28;20034;-49
2023/04/01 08:06:32;;;;;;;46.35;19.40;;;;;;;8.42;100.00;99545.44;5031822;28;20128;-47
2023/04/01 08:09:22;;;;;;;39.83;18.52;;;;;;;8.96;100.00;99625.25;5013626;28;20034;-50
2023/04/01 08:12:01;;;;;;;50.13;19.77;;;;;;;8.93;100.00;99617.50;5013417;28;20034;-46
2023/04/01 08:14:50;;;;;;;41.33;18.40;;;;;;;8.98;100.00;99631.28;5014010;28;20058;-48
2023/04/01 08:17:42;;;;;;;38.25;17.95;;;;;;;9.00;100.00;99627.66;5014770;28;20037;-52
2023/04/01 08:20:16;;;;;;;40.38;18.33;;;;;;;8.91;100.00;99612.31;4985897;28;20048;-47
2023/04/01 08:22:45;;;;;;;47.47;19.02;;;;;;;8.96;100.00;99614.75;4985006;28;20345;-54
2023/04/01 08:25:20;;;;;;;42.63;20.40;;;;;;;8.77;100.00;99580.59;5032045;28;20033;-52
2023/04/01 08:28:07;;;;;;;41.72;18.95;;;;;;;9.02;100.00;99623.19;5031645;28;20041;-50
2023/04/01 08:30:32;;;;;;;36.08;18.02;;;;;;;9.02;100.00;99648.56;5020605;28;20120;-50
2023/04/01 08:33:04;;;;;;;42.28;18.00;;;;;;;8.98;100.00;99641.78;5013256;28;20116;-48
2023/04/01 08:35:31;;;;;;;45.78;17.00;;;;;;;9.06;100.00;99639.66;5011560;28;20068;-48
2023/04/01 08:38:01;;;;;;;33.40;16.92;;;;;;;8.76;100.00;99586.75;5012215;28;20042;-50
2023/04/01 08:40:32;;;;;;;33.90;16.42;;;;;;;9.13;100.00;99650.72;5011649;28;20082;-49
2023/04/01 08:43:04;;;;;;;27.80;14.73;;;;;;;9.17;100.00;99647.03;5011301;28;20048;-47
2023/04/01 08:45:48;;;;;;;36.17;15.95;;;;;;;9.10;100.00;99666.63;5011584;28;20026;-48
2023/04/01 08:48:32;;;;;;;43.80;18.10;;;;;;;9.22;100.00;99658.19;5006112;28;20034;-49
2023/04/01 08:51:16;;;;;;;34.15;16.52;;;;;;;9.32;100.00;99657.69;4991744;28;20399;-48
2023/04/01 08:53:50;;;;;;;39.13;17.52;;;;;;;9.43;100.00;99662.44;4990449;28;20477;-50
2023/04/01 08:56:36;;;;;;;37.80;16.13;;;;;;;9.37;100.00;99668.00;5018336;28;20029;-47
2023/04/01 08:59:22;;;;;;;35.08;15.32;;;;;;;9.36;100.00;99680.28;5030380;28;20039;-48
2023/04/01 09:02:25;;;;;;;31.98;17.25;;;;;;;9.21;100.00;99674.84;5027959;28;20041;-47
2023/04/01 09:05:03;;;;;;;40.03;17.25;;;;;;;9.17;100.00;99694.28;4991390;28;20423;-48
2023/04/01 09:07:39;;;;;;;39.53;16.75;;;;;;;8.80;100.00;99626.84;4991245;28;20497;-49
2023/04/01 09:10:23;;;;;;;38.05;18.27;;;;;;;9.21;100.00;99690.59;4990483;28;20053;-47
2023/04/01 09:13:00;;;;;;;49.90;18.25;;;;;;;9.16;100.00;99697.84;4991387;28;20413;-51
2023/04/01 09:15:59;;;;;;;46.60;17.25;;;;;;;9.12;100.00;99699.75;4991559;28;20041;-47
2023/04/01 09:18:44;;;;;;;38.08;16.88;;;;;;;9.18;100.00;99704.72;4990819;28;20085;-48
2023/04/01 09:21:19;;;;;;;44.05;17.25;;;;;;;9.14;100.00;99702.28;4991190;28;20022;-48
2023/04/01 09:23:59;;;;;;;35.97;16.08;;;;;;;8.88;100.00;99637.84;4989948;28;20116;-51
2023/04/01 09:26:49;;;;;;;34.03;15.60;;;;;;;9.00;100.00;99663.53;4990013;28;20026;-47
2023/04/01 09:29:31;;;;;;;23.38;11.35;;;;;;;9.12;100.00;99668.25;4991357;28;20038;-48
2023/04/01 09:32:22;;;;;;;19.35;10.65;;;;;;;9.27;100.00;99714.81;4994184;28;20562;-48
2023/04/01 09:35:01;;;;;;;20.80;10.68;;;;;;;9.51;100.00;99716.34;4992526;28;20048;-49
2023/04/01 09:38:21;;;;;;;23.92;10.48;;;;;;;9.52;100.00;99709.31;5010022;28;20480;-51
2023/04/01 09:40:56;;;;;;;14.57;9.07;;;;;;;9.38;100.00;99716.97;4968437;28;20490;-47
2023/04/01 09:44:02;;;;;;;20.02;10.43;;;;;;;9.54;100.00;99713.56;5008666;28;20054;-50
2023/04/01 09:47:05;;;;;;;15.98;10.23;;;;;;;9.51;100.00;99720.75;4988527;28;20030;-50
2023/04/01 09:49:37;;;;;;;20.63;10.60;;;;;;;9.40;100.00;99721.22;5010459;28;20038;-49
2023/04/01 09:52:21;;;;;;;18.17;11.57;;;;;;;9.29;100.00;99723.47;5009965;28;20038;-48
2023/04/01 09:54:59;;;;;;;23.92;12.02;;;;;;;9.13;100.00;99709.34;5009471;28;20129;-51
2023/04/01 09:57:55;;;;;;;27.35;13.55;;;;;;;9.39;100.00;99744.94;4990392;28;20085;-49
2023/04/01 10:00:29;;;;;;;34.63;14.93;;;;;;;9.39;100.00;99742.31;4989616;28;20437;-48
2023/04/01 10:03:10;;;;;;;30.30;15.48;;;;;;;9.39;100.00;99753.69;4989594;28;20117;-48
2023/04/01 10:05:57;;;;;;;30.05;14.85;;;;;;;9.44;100.00;99754.31;4990748;28;20038;-50
2023/04/01 10:09:00;;;;;;;31.73;15.38;;;;;;;9.40;100.00;99750.09;4990570;28;20492;-49
2023/04/01 10:12:19;;;;;;;37.13;16.90;;;;;;;9.61;100.00;99757.03;4995788;28;20091;-51
2023/04/01 10:15:11;;;;;;;37.47;17.58;;;;;;;9.50;100.00;99753.19;4990869;28;20049;-48
2023/04/01 10:18:14;;;;;;;40.20;15.90;;;;;;;9.34;100.00;99702.28;5007071;28;20091;-51
2023/04/01 10:20:58;;;;;;;32.28;15.23;;;;;;;9.63;100.00;99769.25;5009977;28;20034;-50
2023/04/01 10:23:41;;;;;;;31.77;15.30;;;;;;;9.68;100.00;99767.25;5013108;28;20076;-50
2023/04/01 10:26:10;;;;;;;36.33;15.98;;;;;;;9.57;100.00;99780.91;5013732;28;20034;-51
2023/04/01 10:28:48;;;;;;;37.85;16.77;;;;;;;9.57;100.00;99768.59;4995580;28;20033;-51
2023/04/01 10:31:47;;;;;;;36.65;16.02;;;;;;;9.48;100.00;99782.16;4994166;28;20113;-49
2023/04/01 10:34:40;;;;;;;37.78;16.95;;;;;;;9.72;100.00;99768.84;4994193;28;20049;-49
2023/04/01 10:37:26;;;;;;;33.03;15.20;;;;;;;9.70;100.00;99774.16;4994598;28;20629;-49
2023/04/01 10:40:13;;;;;;;31.15;14.57;;;;;;;9.57;100.00;99775.63;4993970;28;20152;-49
2023/04/01 10:43:05;;;;;;;35.30;16.52;;;;;;;9.34;100.00;99728.53;4990852;28;20038;-49
2023/04/01 10:45:39;;;;;;;36.08;16.05;;;;;;;9.60;100.00;99792.09;4992823;28;20058;-49
2023/04/01 10:48:20;;;;;;;30.60;14.98;;;;;;;9.12;100.00;99725.16;4993937;28;20128;-52
2023/04/01 10:51:06;;;;;;;29.73;14.23;;;;;;;9.37;100.00;99788.81;4993044;28;20034;-51
2023/04/01 10:53:46;;;;;;;26.13;13.23;;;;;;;9.38;100.00;99793.13;4992152;28;20053;-50
2023/04/01 10:56:31;;;;;;;28.45;12.88;;;;;;;9.42;100.00;99786.81;5013557;28;20038;-52
2023/04/01 10:59:02;;;;;;;28.27;13.20;;;;;;;9.47;100.00;99790.09;5013358;28;20034;-54
2023/04/01 11:02:04;;;;;;;29.70;14.48;;;;;;;9.52;100.00;99796.00;5013483;28;20076;-49
2023/04/01 11:05:00;;;;;;;26.85;12.38;;;;;;;9.67;100.00;99797.06;5001190;28;20497;-47
2023/04/01 11:07:44;;;;;;;30.63;14.15;;;;;;;9.37;100.00;99746.78;5011993;28;20026;-48
2023/04/01 11:10:19;;;;;;;29.40;13.93;;;;;;;9.70;100.00;99803.06;5012648;28;20041;-50
2023/04/01 11:12:53;;;;;;;29.67;13.98;;;;;;;9.45;100.00;99737.66;5012330;28;20029;-48
2023/04/01 11:15:49;;;;;;;31.63;19.23;;;;;;;9.83;100.00;99796.34;5013154;28;20025;-51
2023/04/01 11:18:32;;;;;;;29.45;15.40;;;;;;;9.61;100.00;99738.63;5013371;28;20026;-49
2023/04/01 11:21:42;;;;;;;29.05;15.57;;;;;;;9.88;100.00;99794.34;5013285;28;20324;-48
2023/04/01 11:24:35;;;;;;;26.85;14.85;;;;;;;10.02;100.00;99810.31;5013293;28;20030;-49
2023/04/01 11:27:11;;;;;;;23.40;12.73;;;;;;;9.94;100.00;99782.69;5011093;28;20030;-46
2023/04/01 11:29:47;;;;;;;22.35;12.93;;;;;;;9.89;100.00;99763.66;5011753;28;20408;-47
2023/04/01 11:32:36;;;;;;;23.98;12.02;;;;;;;10.09;100.00;99827.53;5012901;28;20042;-47
2023/04/01 11:35:05;;;;;;;21.92;12.48;;;;;;;10.08;100.00;99822.31;5012054;28;20121;-49
2023/04/01 11:37:55;;;;;;;20.33;12.13;;;;;;;10.07;100.00;99824.09;5012725;28;20058;-50
2023/04/01 11:40:49;;;;;;;24.15;11.68;;;;;;;9.82;100.00;99797.25;5011712;28;20042;-48
2023/04/01 11:43:30;;;;;;;22.95;10.82;;;;;;;9.93;100.00;99834.41;4998414;28;20062;-47
2023/04/01 11:46:34;;;;;;;26.83;13.48;;;;;;;9.93;100.00;99844.91;4975361;28;20615;-50
2023/04/01 11:49:28;;;;;;;25.92;12.63;;;;;;;9.85;100.00;99833.03;4959188;28;20133;-51
2023/04/01 11:52:17;;;;;;;24.23;12.25;;;;;;;9.88;100.00;99841.66;5008036;28;20034;-54